createdAt,value
2019-05-25T00:02:12.625Z,26.05
2019-05-25T00:04:45.158Z,26.07
2019-05-25T00:07:17.327Z,27.00
2019-05-25T00:09:49.614Z,26.17
2019-05-25T00:12:23.714Z,27.55
2019-05-25T00:14:55.790Z,25.32
2019-05-25T00:17:27.917Z,24.63
2019-05-25T00:20:00.219Z,24.40
2019-05-25T00:22:32.606Z,21.95
2019-05-25T00:25:05.964Z,23.40
2019-05-25T00:27:38.186Z,24.72
2019-05-25T00:30:10.641Z,23.95
2019-05-25T00:32:42.941Z,22.87
2019-05-25T00:35:15.064Z,23.12
2019-05-25T00:37:47.351Z,22.60
2019-05-25T00:40:19.472Z,22.65
2019-05-25T00:42:51.605Z,23.32
2019-05-25T00:45:23.816Z,22.60
2019-05-25T00:47:56.022Z,22.40
2019-05-25T00:50:28.293Z,23.02
2019-05-25T00:53:00.481Z,21.15
2019-05-25T00:55:32.738Z,22.73
2019-05-25T00:58:05.011Z,22.02
2019-05-25T01:00:37.273Z,21.15
2019-05-25T01:03:09.525Z,22.05
2019-05-25T01:05:41.717Z,21.00
2019-05-25T01:08:13.706Z,21.85
2019-05-25T01:10:45.937Z,21.02
2019-05-25T01:13:18.503Z,21.85
2019-05-25T01:15:50.677Z,21.13
2019-05-25T01:18:22.882Z,21.85
2019-05-25T01:20:55.128Z,21.73
2019-05-25T01:23:27.180Z,20.20
2019-05-25T01:25:59.341Z,20.82
2019-05-25T01:28:31.616Z,19.57
2019-05-25T01:31:03.831Z,20.55
2019-05-25T01:33:35.945Z,20.50
2019-05-25T01:36:08.231Z,20.77
2019-05-25T01:38:40.500Z,19.48
2019-05-25T01:41:12.773Z,18.30
2019-05-25T01:43:44.976Z,16.77
2019-05-25T01:48:49.266Z,18.37
2019-05-25T01:51:21.556Z,17.62
2019-05-25T01:53:53.544Z,17.92
2019-05-25T01:56:25.778Z,19.37
2019-05-25T01:58:58.058Z,20.35
2019-05-25T02:01:30.424Z,19.17
2019-05-25T02:04:02.507Z,20.90
2019-05-25T02:06:35.716Z,19.95
2019-05-25T02:09:08.353Z,20.50
2019-05-25T02:11:40.624Z,21.35
2019-05-25T02:14:12.829Z,21.82
2019-05-25T02:16:45.070Z,20.85
2019-05-25T02:19:17.349Z,21.77
2019-05-25T02:21:49.621Z,22.13
2019-05-25T02:24:21.610Z,22.40
2019-05-25T02:26:53.662Z,21.80
2019-05-25T02:29:25.834Z,21.40
2019-05-25T02:31:57.821Z,21.30
2019-05-25T02:34:30.044Z,21.45
2019-05-25T02:37:02.201Z,21.70
2019-05-25T02:39:34.260Z,21.95
2019-05-25T02:42:06.641Z,22.13
2019-05-25T02:44:38.803Z,21.80
2019-05-25T02:47:11.153Z,20.50
2019-05-25T02:49:43.352Z,22.45
2019-05-25T02:52:15.413Z,21.23
2019-05-25T02:54:47.683Z,21.25
2019-05-25T02:57:19.966Z,22.32
2019-05-25T02:59:52.235Z,22.13
2019-05-25T03:02:24.702Z,22.55
2019-05-25T03:04:56.996Z,21.70
2019-05-25T03:07:30.055Z,21.33
2019-05-25T03:10:02.984Z,21.20
2019-05-25T03:15:07.714Z,21.55
2019-05-25T03:17:39.785Z,21.20
2019-05-25T03:20:12.443Z,23.52
2019-05-25T03:22:44.543Z,22.37
2019-05-25T03:25:18.031Z,23.30
2019-05-25T03:27:50.228Z,22.93
2019-05-25T03:30:33.482Z,23.15
2019-05-25T03:33:05.870Z,22.77
2019-05-25T03:35:37.918Z,21.48
2019-05-25T03:38:10.929Z,22.90
2019-05-25T03:40:43.068Z,23.52
2019-05-25T03:43:15.136Z,22.30
2019-05-25T03:45:47.331Z,20.90
2019-05-25T03:48:19.392Z,22.62
2019-05-25T03:50:51.446Z,22.77
2019-05-25T03:53:23.746Z,23.57
2019-05-25T03:56:05.197Z,22.98
2019-05-25T03:58:29.853Z,23.42
2019-05-25T04:01:02.020Z,21.50
2019-05-25T04:03:34.079Z,22.67
2019-05-25T04:06:06.329Z,21.27
2019-05-25T04:08:38.585Z,21.90
2019-05-25T04:11:10.876Z,18.90
2019-05-25T04:13:43.174Z,19.05
2019-05-25T04:16:15.411Z,19.50
2019-05-25T04:18:47.529Z,20.75
2019-05-25T04:21:19.730Z,21.00
2019-05-25T04:23:51.938Z,20.15
2019-05-25T04:26:27.451Z,22.22
2019-05-25T04:28:58.429Z,21.80
2019-05-25T04:31:30.522Z,23.02
2019-05-25T04:34:02.516Z,24.98
2019-05-25T04:36:34.703Z,26.55
2019-05-25T04:39:08.469Z,24.35
2019-05-25T04:41:40.650Z,27.52
2019-05-25T04:44:12.735Z,29.98
2019-05-25T04:46:45.007Z,28.10
2019-05-25T04:49:17.200Z,25.45
2019-05-25T04:51:49.172Z,24.12
2019-05-25T04:54:21.232Z,25.75
2019-05-25T04:56:53.469Z,26.42
2019-05-25T04:59:25.675Z,26.77
2019-05-25T05:01:57.837Z,27.45
2019-05-25T05:04:30.908Z,27.35
2019-05-25T05:07:02.951Z,26.62
2019-05-25T05:09:35.007Z,27.62
2019-05-25T05:12:07.158Z,29.32
2019-05-25T05:14:39.220Z,28.75
2019-05-25T05:17:11.272Z,27.50
2019-05-25T05:19:44.626Z,23.25
2019-05-25T05:22:16.897Z,22.22
2019-05-25T05:24:49.109Z,20.27
2019-05-25T05:27:21.330Z,20.23
2019-05-25T05:29:53.531Z,20.65
2019-05-25T05:32:27.812Z,19.92
2019-05-25T05:35:00.613Z,19.70
2019-05-25T05:37:32.879Z,19.70
2019-05-25T05:40:08.174Z,19.70
2019-05-25T05:42:43.306Z,20.08
2019-05-25T05:45:15.405Z,20.70
2019-05-25T05:47:50.172Z,19.35
2019-05-25T05:50:22.360Z,19.50
2019-05-25T05:52:55.758Z,17.87
2019-05-25T05:58:02.925Z,20.75
2019-05-25T06:00:34.988Z,20.85
2019-05-25T06:03:06.982Z,20.20
2019-05-25T06:05:39.055Z,19.98
2019-05-25T06:08:11.222Z,18.20
2019-05-25T06:10:43.595Z,18.67
2019-05-25T06:13:15.831Z,19.52
2019-05-25T06:15:48.106Z,19.62
2019-05-25T06:18:20.378Z,19.37
2019-05-25T06:20:52.623Z,17.80
2019-05-25T06:23:24.779Z,16.25
2019-05-25T06:25:57.078Z,17.43
2019-05-25T06:28:29.433Z,16.73
2019-05-25T06:31:01.818Z,17.00
2019-05-25T06:33:34.095Z,16.77
2019-05-25T06:36:06.356Z,16.30
2019-05-25T06:38:38.633Z,16.03
2019-05-25T06:41:10.699Z,14.93
2019-05-25T06:43:42.876Z,15.68
2019-05-25T06:46:15.129Z,16.40
2019-05-25T06:48:47.398Z,31.40
2019-05-25T06:51:19.592Z,33.60
2019-05-25T06:53:51.838Z,30.23
2019-05-25T06:56:24.042Z,31.75
2019-05-25T06:58:56.471Z,31.68
2019-05-25T07:01:29.085Z,31.15
2019-05-25T07:04:01.236Z,28.90
2019-05-25T07:06:33.530Z,26.97
2019-05-25T07:09:07.468Z,27.62
2019-05-25T07:11:39.569Z,28.90
2019-05-25T07:14:11.617Z,26.40
2019-05-25T07:16:43.837Z,24.55
2019-05-25T07:19:16.025Z,23.92
2019-05-25T07:21:48.167Z,23.20
2019-05-25T07:24:20.219Z,24.37
2019-05-25T07:26:52.499Z,25.13
2019-05-25T07:29:24.759Z,23.50
2019-05-25T07:31:58.093Z,23.80
2019-05-25T07:34:30.311Z,21.82
2019-05-25T07:37:02.594Z,18.33
2019-05-25T07:39:34.651Z,18.55
2019-05-25T07:42:06.850Z,17.85
2019-05-25T07:44:39.097Z,18.93
